createdAt,value
2019-04-19T00:01:47.682Z,4.63
2019-04-19T00:04:16.230Z,5.00
2019-04-19T00:06:48.486Z,4.97
2019-04-19T00:09:31.099Z,5.70
2019-04-19T00:12:04.476Z,6.47
2019-04-19T00:14:23.400Z,6.27
2019-04-19T00:16:53.599Z,6.40
2019-04-19T00:19:52.494Z,6.87
2019-04-19T00:24:31.739Z,5.80
2019-04-19T00:27:07.750Z,5.33
2019-04-19T00:34:56.786Z,5.20
2019-04-19T00:37:27.250Z,6.30
2019-04-19T00:40:27.828Z,6.63
2019-04-19T00:45:49.483Z,5.90
2019-04-19T00:48:26.261Z,5.40
2019-04-19T00:50:53.042Z,5.60
2019-04-19T00:53:24.361Z,6.63
2019-04-19T00:55:53.581Z,5.97
2019-04-19T00:58:20.072Z,6.20
2019-04-19T01:00:49.113Z,6.17
2019-04-19T01:03:30.721Z,6.27
2019-04-19T01:06:00.709Z,6.07
2019-04-19T01:08:27.593Z,6.70
2019-04-19T01:11:12.854Z,6.17
2019-04-19T01:13:47.756Z,5.93
2019-04-19T01:16:20.517Z,7.00
2019-04-19T01:18:52.571Z,6.30
2019-04-19T01:21:23.951Z,6.30
2019-04-19T01:23:59.079Z,5.90
2019-04-19T01:26:30.022Z,6.07
2019-04-19T01:29:09.485Z,6.10
2019-04-19T01:31:37.717Z,7.00
2019-04-19T01:34:13.049Z,6.17
2019-04-19T01:36:46.656Z,6.80
2019-04-19T01:39:29.031Z,5.50
2019-04-19T01:42:01.086Z,6.53
2019-04-19T01:44:53.334Z,6.53
2019-04-19T01:47:47.750Z,6.30
2019-04-19T01:53:26.714Z,5.80
2019-04-19T01:55:41.768Z,7.10
2019-04-19T01:58:16.153Z,6.50
2019-04-19T02:03:23.172Z,6.30
2019-04-19T02:05:56.519Z,5.27
2019-04-19T02:08:29.057Z,6.60
2019-04-19T02:11:51.280Z,6.07
2019-04-19T02:14:21.173Z,5.80
2019-04-19T02:27:20.368Z,5.70
2019-04-19T02:29:59.484Z,5.67
2019-04-19T02:32:43.695Z,5.90
2019-04-19T02:35:15.562Z,6.27
2019-04-19T02:37:58.217Z,6.30
2019-04-19T02:40:45.013Z,6.10
2019-04-19T02:43:03.408Z,6.13
2019-04-19T02:45:32.729Z,6.33
2019-04-19T02:48:19.893Z,5.73
2019-04-19T02:51:07.763Z,6.50
2019-04-19T02:53:20.259Z,5.90
2019-04-19T02:55:56.386Z,6.53
2019-04-19T02:58:18.134Z,6.23
2019-04-19T03:01:17.301Z,5.90
2019-04-19T03:03:27.463Z,6.10
2019-04-19T03:05:59.336Z,5.92
2019-04-19T03:08:12.526Z,5.40
2019-04-19T03:10:58.454Z,6.30
2019-04-19T03:13:37.899Z,6.10
2019-04-19T03:16:02.487Z,7.00
2019-04-19T03:18:39.956Z,6.23
2019-04-19T03:21:08.340Z,6.27
2019-04-19T03:23:36.514Z,5.53
2019-04-19T03:26:17.129Z,6.23
2019-04-19T03:28:41.673Z,5.83
2019-04-19T03:31:32.758Z,5.33
2019-04-19T03:36:32.529Z,6.07
2019-04-19T03:38:57.549Z,4.83
2019-04-19T03:44:22.142Z,6.10
2019-04-19T03:54:40.473Z,5.53
2019-04-19T03:57:11.580Z,5.87
2019-04-19T03:59:27.529Z,5.80
2019-04-19T04:02:00.643Z,6.17
2019-04-19T04:04:32.059Z,5.77
2019-04-19T04:07:08.618Z,6.10
2019-04-19T04:09:49.768Z,6.17
2019-04-19T04:12:55.378Z,7.70
2019-04-19T04:15:51.709Z,7.20
2019-04-19T04:18:09.110Z,6.80
2019-04-19T04:20:48.984Z,6.70
2019-04-19T04:26:01.160Z,5.93
2019-04-19T04:28:39.383Z,6.53
2019-04-19T04:31:15.402Z,6.40
2019-04-19T04:33:54.651Z,5.87
2019-04-19T04:36:36.232Z,5.90
2019-04-19T04:38:58.584Z,6.30
2019-04-19T04:41:31.218Z,6.03
2019-04-19T04:44:20.468Z,5.17
2019-04-19T04:47:06.187Z,6.10
2019-04-19T04:49:53.657Z,6.40
2019-04-19T04:52:20.166Z,7.00
2019-04-19T04:54:48.312Z,6.63
2019-04-19T04:57:32.645Z,5.70
2019-04-19T05:00:00.679Z,7.00
2019-04-19T05:02:46.182Z,6.57
2019-04-19T05:05:19.473Z,5.73
2019-04-19T05:07:58.104Z,5.90
2019-04-19T05:10:18.982Z,6.70
2019-04-19T05:13:13.718Z,6.00
2019-04-19T05:15:34.771Z,5.63
2019-04-19T05:18:13.775Z,5.97
2019-04-19T05:20:36.823Z,6.37
2019-04-19T05:23:09.309Z,6.20
2019-04-19T05:25:56.399Z,6.00
2019-04-19T05:28:14.432Z,6.03
2019-04-19T05:30:37.168Z,6.93
2019-04-19T05:33:09.955Z,6.30
2019-04-19T05:38:56.037Z,6.60
2019-04-19T05:41:29.753Z,6.27
2019-04-19T05:44:21.699Z,7.07
2019-04-19T05:46:45.903Z,7.43
2019-04-19T05:49:10.362Z,8.60
2019-04-19T05:51:48.928Z,10.33
2019-04-19T05:54:07.206Z,14.67
2019-04-19T05:56:45.083Z,10.80
2019-04-19T05:59:34.281Z,9.37
2019-04-19T06:02:21.941Z,8.07
2019-04-19T06:05:11.406Z,8.40
2019-04-19T06:10:25.547Z,9.03
2019-04-19T06:13:00.436Z,8.40
2019-04-19T06:15:48.463Z,8.97
2019-04-19T06:18:31.555Z,18.30
2019-04-19T06:21:17.105Z,12.87
2019-04-19T06:23:49.501Z,16.00
2019-04-19T06:26:46.265Z,15.20
2019-04-19T06:28:55.653Z,19.23
2019-04-19T06:31:24.205Z,15.77
2019-04-19T06:33:45.675Z,14.67
2019-04-19T06:36:05.571Z,11.10
2019-04-19T06:38:32.954Z,12.70
2019-04-19T06:41:13.681Z,12.60
2019-04-19T06:48:59.750Z,10.50
2019-04-19T06:51:31.852Z,11.05
2019-04-19T06:54:02.021Z,11.13
2019-04-19T06:56:33.359Z,10.37
2019-04-19T06:59:13.056Z,9.07
2019-04-19T07:01:40.219Z,9.90
2019-04-19T07:04:04.187Z,7.40
2019-04-19T07:06:48.288Z,7.53
2019-04-19T07:09:31.059Z,6.50
2019-04-19T07:12:02.190Z,6.93
2019-04-19T07:14:18.553Z,6.20
2019-04-19T07:17:04.491Z,6.70
2019-04-19T07:19:35.106Z,5.83
2019-04-19T07:22:00.724Z,6.23
2019-04-19T07:24:39.282Z,6.00
2019-04-19T07:27:12.460Z,6.80
2019-04-19T07:29:25.477Z,6.33
2019-04-19T07:31:55.780Z,6.30
2019-04-19T07:34:41.973Z,6.20
2019-04-19T07:37:14.520Z,5.90
2019-04-19T07:39:55.660Z,6.27
2019-04-19T07:51:18.825Z,6.60
2019-04-19T07:53:49.037Z,7.00
2019-04-19T07:56:31.703Z,7.07
2019-04-19T07:59:16.666Z,7.53
2019-04-19T08:09:20.357Z,8.07
2019-04-19T08:11:58.606Z,7.40
2019-04-19T08:17:29.192Z,7.13
2019-04-19T08:29:22.082Z,7.23
2019-04-19T08:31:40.028Z,7.20
2019-04-19T08:34:14.452Z,7.13
2019-04-19T08:36:49.329Z,7.30
2019-04-19T08:39:32.178Z,7.10
2019-04-19T08:42:06.856Z,6.40
2019-04-19T08:47:20.434Z,7.07
2019-04-19T08:50:05.770Z,6.87
2019-04-19T08:52:37.521Z,8.23
2019-04-19T08:55:27.650Z,7.60
2019-04-19T08:57:41.206Z,7.67
2019-04-19T09:00:41.116Z,7.40
2019-04-19T09:02:59.024Z,6.70
2019-04-19T09:05:31.236Z,7.70
2019-04-19T09:08:05.296Z,7.80
2019-04-19T09:10:33.665Z,8.13
2019-04-19T09:13:19.640Z,7.60
2019-04-19T09:15:35.181Z,7.67
2019-04-19T09:20:49.699Z,8.43
2019-04-19T09:23:14.127Z,7.73
2019-04-19T09:26:05.845Z,6.63
2019-04-19T09:29:06.419Z,8.27
2019-04-19T09:31:16.850Z,7.60
2019-04-19T09:33:39.119Z,8.03
2019-04-19T09:36:11.264Z,8.37
2019-04-19T09:38:55.534Z,7.97
2019-04-19T09:41:20.588Z,7.27
2019-04-19T09:43:54.530Z,8.80
2019-04-19T09:46:13.044Z,7.97
2019-04-19T09:49:01.010Z,8.03
2019-04-19T09:51:35.301Z,8.20
2019-04-19T09:54:09.769Z,7.67
2019-04-19T09:56:35.971Z,8.47
2019-04-19T09:59:05.086Z,8.00
2019-04-19T10:01:31.037Z,8.50
2019-04-19T10:03:59.928Z,8.77
2019-04-19T10:06:28.877Z,8.20
2019-04-19T10:09:01.045Z,9.53
2019-04-19T10:11:31.036Z,8.20
2019-04-19T10:14:00.670Z,7.80
2019-04-19T10:16:38.115Z,7.97
2019-04-19T10:19:10.067Z,9.03
2019-04-19T10:22:16.623Z,8.37
2019-04-19T10:24:48.103Z,9.30
2019-04-19T10:30:06.305Z,8.57
2019-04-19T10:32:38.335Z,8.23
2019-04-19T10:35:09.422Z,7.47
2019-04-19T10:37:39.942Z,8.17
2019-04-19T10:40:13.391Z,7.53
2019-04-19T10:43:27.795Z,7.20
2019-04-19T10:46:49.444Z,6.80
2019-04-19T10:49:33.403Z,8.10
2019-04-19T10:52:10.224Z,8.00
2019-04-19T10:55:08.578Z,8.93
2019-04-19T10:57:36.824Z,8.20
2019-04-19T11:02:52.450Z,7.20
2019-04-19T11:05:36.895Z,8.67
2019-04-19T11:10:58.098Z,7.50
2019-04-19T11:13:54.351Z,7.83
2019-04-19T11:16:04.602Z,8.77
2019-04-19T11:18:35.274Z,7.57
2019-04-19T11:21:05.309Z,8.77
2019-04-19T11:23:35.735Z,7.77
2019-04-19T11:28:41.094Z,7.97
2019-04-19T11:31:36.089Z,8.77
2019-04-19T11:34:08.842Z,7.43
2019-04-19T11:36:41.801Z,8.50
2019-04-19T11:39:17.276Z,7.90
2019-04-19T11:41:49.271Z,8.30
2019-04-19T11:44:32.749Z,7.90
2019-04-19T11:49:48.936Z,8.53
2019-04-19T11:52:28.083Z,9.00
2019-04-19T11:55:07.256Z,9.60
2019-04-19T11:57:46.345Z,8.10
2019-04-19T12:00:33.869Z,7.50
2019-04-19T12:03:22.838Z,7.00
2019-04-19T12:06:08.686Z,7.70
2019-04-19T12:09:12.411Z,7.37
2019-04-19T12:11:38.050Z,8.60
2019-04-19T12:16:50.832Z,7.53
2019-04-19T12:19:25.704Z,8.00
2019-04-19T12:21:54.540Z,7.17
2019-04-19T12:24:24.845Z,7.30
2019-04-19T12:26:57.665Z,7.33
2019-04-19T12:44:46.067Z,7.10
2019-04-19T12:47:51.184Z,7.30
2019-04-19T12:54:34.133Z,6.43
2019-04-19T13:01:12.440Z,6.83
2019-04-19T13:07:51.411Z,6.67
2019-04-19T13:10:26.959Z,5.90
2019-04-19T13:13:00.121Z,4.77
2019-04-19T13:15:34.326Z,5.03
2019-04-19T13:18:04.406Z,5.10
2019-04-19T13:20:55.595Z,6.10
2019-04-19T13:23:38.186Z,6.10
2019-04-19T13:26:33.503Z,6.53
2019-04-19T13:34:34.228Z,6.70
2019-04-19T13:37:47.594Z,6.07
2019-04-19T13:40:42.970Z,6.30
2019-04-19T13:43:22.681Z,6.80
2019-04-19T13:45:54.703Z,7.07
2019-04-19T13:48:34.660Z,6.13
2019-04-19T13:51:10.661Z,6.93
2019-04-19T13:56:22.608Z,7.00
2019-04-19T13:59:09.819Z,7.03
2019-04-19T14:01:55.075Z,6.53
2019-04-19T14:04:29.219Z,6.57
2019-04-19T14:07:02.420Z,7.13
2019-04-19T14:09:33.621Z,6.13
2019-04-19T14:12:09.106Z,6.87
2019-04-19T14:17:42.786Z,6.50
2019-04-19T14:20:27.568Z,5.70
2019-04-19T14:23:23.631Z,6.50
2019-04-19T14:26:11.510Z,5.00
2019-04-19T14:28:47.391Z,7.33
2019-04-19T14:31:26.326Z,5.00
2019-04-19T14:33:59.253Z,6.47
2019-04-19T14:39:56.418Z,6.43
2019-04-19T14:56:31.064Z,6.23
2019-04-19T14:59:02.681Z,5.80
2019-04-19T15:01:49.348Z,5.10
2019-04-19T15:04:57.932Z,5.50
2019-04-19T15:07:28.388Z,5.10
2019-04-19T15:09:59.550Z,5.10
2019-04-19T15:12:32.528Z,4.20
2019-04-19T15:15:06.185Z,5.27
2019-04-19T15:17:35.437Z,5.43
2019-04-19T15:20:08.055Z,5.57
2019-04-19T15:22:38.065Z,5.20
2019-04-19T15:25:10.912Z,5.33
2019-04-19T15:27:41.369Z,5.60
2019-04-19T15:30:12.983Z,5.83
2019-04-19T15:32:44.493Z,5.30
2019-04-19T15:35:16.544Z,5.30
2019-04-19T15:37:51.987Z,5.00
2019-04-19T15:40:44.327Z,4.67
2019-04-19T15:43:17.531Z,5.20
2019-04-19T15:45:49.339Z,5.57
2019-04-19T15:48:27.571Z,5.17
2019-04-19T15:50:52.685Z,5.80
2019-04-19T15:53:24.326Z,4.90
2019-04-19T15:55:55.856Z,4.80
2019-04-19T15:58:30.884Z,4.80
2019-04-19T16:06:43.871Z,4.80
2019-04-19T16:10:01.750Z,5.37
2019-04-19T16:15:47.835Z,5.13
2019-04-19T16:18:20.112Z,5.03
2019-04-19T16:21:01.282Z,4.50
2019-04-19T16:23:36.311Z,4.67
2019-04-19T16:31:54.315Z,5.40
2019-04-19T16:34:57.173Z,4.80
2019-04-19T16:38:03.500Z,5.37
2019-04-19T16:40:40.576Z,5.20
2019-04-19T16:43:13.225Z,4.43
2019-04-19T16:45:46.238Z,5.20
2019-04-19T16:48:16.814Z,4.40
2019-04-19T16:50:46.541Z,4.50
2019-04-19T16:53:17.817Z,4.80
2019-04-19T16:55:49.777Z,4.53
2019-04-19T16:58:20.864Z,5.07
2019-04-19T17:00:52.494Z,4.60
2019-04-19T17:03:25.717Z,4.23
2019-04-19T17:06:06.482Z,4.17
2019-04-19T17:13:20.606Z,4.63
2019-04-19T17:16:52.805Z,4.00
2019-04-19T17:20:39.482Z,4.20
2019-04-19T17:23:31.289Z,3.90
2019-04-19T17:49:12.979Z,4.40
2019-04-19T17:52:19.485Z,4.00
2019-04-19T17:55:18.583Z,4.53
2019-04-19T17:58:56.457Z,4.23
2019-04-19T18:01:36.490Z,4.50
2019-04-19T18:04:16.435Z,4.50
2019-04-19T18:13:59.314Z,4.40
2019-04-19T18:16:50.559Z,5.10
2019-04-19T18:19:59.174Z,5.70
2019-04-19T18:23:28.431Z,4.80
2019-04-19T18:26:20.540Z,5.27
2019-04-19T18:36:55.943Z,5.70
2019-04-19T18:39:34.175Z,6.17
2019-04-19T18:42:03.969Z,10.50
2019-04-19T18:44:43.321Z,8.80
2019-04-19T18:47:09.529Z,8.57
2019-04-19T18:49:39.314Z,7.43
2019-04-19T18:52:21.835Z,6.07
2019-04-19T18:55:53.151Z,5.90
2019-04-19T18:58:26.792Z,5.57
2019-04-19T19:01:01.254Z,5.00
2019-04-19T19:09:13.342Z,4.80
2019-04-19T19:11:46.436Z,5.83
2019-04-19T19:14:35.413Z,4.70
2019-04-19T19:17:17.282Z,4.73
2019-04-19T19:22:32.220Z,4.60
2019-04-19T19:25:18.444Z,5.00
2019-04-19T19:36:49.185Z,4.90
2019-04-19T19:39:28.485Z,4.77
2019-04-19T19:45:13.809Z,5.80
2019-04-19T19:51:08.765Z,4.67
2019-04-19T19:53:54.421Z,4.30
2019-04-19T19:57:03.061Z,5.53
2019-04-19T19:59:12.695Z,5.23
2019-04-19T20:01:48.193Z,5.40
2019-04-19T20:04:04.630Z,5.37
2019-04-19T20:06:36.730Z,5.80
2019-04-19T20:09:44.815Z,5.63
2019-04-19T20:12:24.852Z,6.70
2019-04-19T20:17:58.397Z,5.20
2019-04-19T20:20:36.224Z,4.37
2019-04-19T20:23:37.915Z,4.70
2019-04-19T20:26:21.977Z,5.57
2019-04-19T20:31:40.936Z,6.50
2019-04-19T20:34:38.917Z,6.63
2019-04-19T20:37:13.082Z,6.40
2019-04-19T20:39:44.961Z,6.00
2019-04-19T20:42:23.356Z,5.30
2019-04-19T20:44:55.385Z,5.30
2019-04-19T20:47:21.678Z,5.30
2019-04-19T20:49:51.701Z,4.97
2019-04-19T20:52:40.195Z,5.40
2019-04-19T20:58:24.029Z,5.47
2019-04-19T21:00:48.456Z,5.30
2019-04-19T21:03:26.112Z,5.43
2019-04-19T21:05:53.101Z,5.37
2019-04-19T21:08:30.399Z,5.40
2019-04-19T21:16:20.392Z,5.80
2019-04-19T21:19:07.316Z,5.63
2019-04-19T21:24:16.919Z,5.47
2019-04-19T21:26:47.286Z,5.40
2019-04-19T21:29:24.042Z,5.10
2019-04-19T21:31:54.207Z,4.87
2019-04-19T21:34:26.302Z,5.70
2019-04-19T21:36:59.574Z,6.50
2019-04-19T21:39:25.143Z,5.43
2019-04-19T21:41:59.146Z,5.50
2019-04-19T21:44:28.408Z,4.43
2019-04-19T21:47:02.201Z,5.30
2019-04-19T21:49:30.911Z,5.20
2019-04-19T21:52:05.414Z,4.90
2019-04-19T21:54:32.751Z,5.33
2019-04-19T21:57:04.660Z,5.97
2019-04-19T21:59:38.769Z,6.10
2019-04-19T22:02:07.688Z,5.53
2019-04-19T22:04:43.642Z,6.87
2019-04-19T22:07:10.798Z,6.07
2019-04-19T22:09:49.947Z,6.60
2019-04-19T22:12:14.767Z,7.27
2019-04-19T22:14:44.811Z,6.70
2019-04-19T22:17:23.357Z,6.23
2019-04-19T22:19:51.758Z,4.10
2019-04-19T22:22:28.745Z,4.80
2019-04-19T22:24:59.850Z,5.33
2019-04-19T22:27:29.522Z,6.23
2019-04-19T22:35:16.631Z,5.13
2019-04-19T22:37:43.147Z,4.80
2019-04-19T22:40:19.047Z,6.07
2019-04-19T22:42:59.623Z,6.90
2019-04-19T22:45:24.166Z,8.23
2019-04-19T22:47:53.873Z,7.20
2019-04-19T22:50:31.045Z,6.60
2019-04-19T22:53:00.756Z,6.73
2019-04-19T22:55:44.332Z,6.00
2019-04-19T22:58:06.045Z,5.90
2019-04-19T23:00:40.057Z,6.30
2019-04-19T23:03:22.006Z,7.83
2019-04-19T23:05:47.007Z,8.40
2019-04-19T23:08:17.386Z,8.83
2019-04-19T23:10:54.506Z,9.23
2019-04-19T23:13:23.599Z,8.80
2019-04-19T23:15:58.908Z,8.53
2019-04-19T23:18:26.718Z,9.57
2019-04-19T23:21:05.388Z,9.23
2019-04-19T23:23:32.591Z,9.50
2019-04-19T23:26:16.143Z,9.40
2019-04-19T23:28:38.179Z,13.07
2019-04-19T23:31:08.895Z,11.20
2019-04-19T23:33:36.490Z,11.00
2019-04-19T23:36:12.828Z,11.30
2019-04-19T23:38:39.055Z,11.50
2019-04-19T23:41:09.368Z,11.17
2019-04-19T23:43:43.538Z,11.27
2019-04-19T23:46:19.851Z,10.87
2019-04-19T23:48:44.638Z,9.27
2019-04-19T23:51:16.493Z,9.37
2019-04-19T23:53:48.198Z,10.03
2019-04-19T23:56:28.509Z,7.70
2019-04-19T23:58:50.185Z,8.43
